Time;durP1;ratioP1;P1;durP2;ratioP2;P2;SDS_P1;SDS_P2;PMS_P1;PMS_P2;Temp;Humidity;BMP_temperature;BMP_pressure;BME280_temperature;BME280_humidity;BME280_pressure;Samples;Min_cycle;Max_cycle;Signal;HPM_P1;HPM_P2
2023/04/15 00:01:26;;;;;;;2.00;1.80;;;;;;;6.67;100.00;101131.53;107046;1283;58485;-78
2023/04/15 00:03:52;;;;;;;5.90;1.90;;;;;;;6.67;100.00;101131.83;106594;1283;58470;-78
2023/04/15 00:06:19;;;;;;;2.00;1.50;;;;;;;6.66;100.00;101137.19;107028;1283;58302;-79
2023/04/15 00:08:45;;;;;;;2.80;1.60;;;;;;;6.66;100.00;101134.89;107041;1283;58235;-78
2023/04/15 00:11:11;;;;;;;2.40;1.70;;;;;;;6.64;100.00;101134.21;107021;1283;58196;-78
2023/04/15 00:13:38;;;;;;;3.10;2.00;;;;;;;6.65;100.00;101133.04;106534;1286;58342;-78
2023/04/15 00:16:05;;;;;;;2.90;1.80;;;;;;;6.64;100.00;101132.92;107068;1284;58261;-78
2023/04/15 00:18:31;;;;;;;3.00;2.10;;;;;;;6.64;100.00;101130.86;107056;1283;58276;-77
2023/04/15 00:20:56;;;;;;;3.10;2.10;;;;;;;6.64;100.00;101135.07;107017;1285;58205;-79
2023/04/15 00:23:22;;;;;;;3.40;2.30;;;;;;;6.64;100.00;101135.88;107019;1286;58501;-77
2023/04/15 00:25:47;;;;;;;5.60;2.30;;;;;;;6.63;100.00;101142.54;107035;1283;58243;-78
2023/04/15 00:28:13;;;;;;;4.40;2.60;;;;;;;6.61;100.00;101142.52;107005;1283;74105;-78
2023/04/15 00:30:38;;;;;;;2.60;2.10;;;;;;;6.62;100.00;101141.92;107047;1286;58281;-78
2023/04/15 00:33:04;;;;;;;3.30;2.10;;;;;;;6.61;100.00;101140.45;107076;1283;58301;-78
2023/04/15 00:35:31;;;;;;;2.80;2.20;;;;;;;6.61;100.00;101139.54;107080;1286;58364;-78
2023/04/15 00:37:57;;;;;;;3.40;2.40;;;;;;;6.64;100.00;101141.78;107035;1283;58534;-78
2023/04/15 00:40:23;;;;;;;5.00;2.00;;;;;;;6.61;100.00;101138.69;107050;1283;58495;-78
2023/04/15 00:42:49;;;;;;;4.10;2.40;;;;;;;6.64;100.00;101145.09;107068;1283;58179;-77
2023/04/15 00:45:15;;;;;;;3.50;2.20;;;;;;;6.67;100.00;101143.77;106633;1286;59169;-77
2023/04/15 00:47:42;;;;;;;6.10;2.40;;;;;;;6.63;100.00;101150.08;107099;1286;73806;-77
2023/04/15 00:50:08;;;;;;;6.70;2.60;;;;;;;6.63;100.00;101147.27;107201;1283;74249;-77
2023/04/15 00:52:34;;;;;;;4.10;2.70;;;;;;;6.60;100.00;101144.44;107151;1283;60573;-77
2023/04/15 00:55:00;;;;;;;4.30;2.70;;;;;;;6.61;100.00;101142.22;107201;1282;58161;-77
2023/04/15 00:57:27;;;;;;;4.40;3.00;;;;;;;6.62;100.00;101144.11;107221;1282;58282;-77
2023/04/15 00:59:55;;;;;;;4.30;3.20;;;;;;;6.58;100.00;101147.39;107137;1282;58375;-77
2023/04/15 01:02:21;;;;;;;4.50;3.20;;;;;;;6.60;100.00;101150.71;106927;1283;74343;-78
2023/04/15 01:04:48;;;;;;;4.70;3.10;;;;;;;6.58;100.00;101152.52;107164;1283;58785;-79
2023/04/15 01:07:14;;;;;;;4.60;3.10;;;;;;;6.57;100.00;101154.77;107126;1282;58275;-77
2023/04/15 01:09:40;;;;;;;3.60;2.80;;;;;;;6.55;100.00;101156.23;107207;1282;58704;-78
2023/04/15 01:12:07;;;;;;;5.20;3.30;;;;;;;6.58;100.00;101154.98;107194;1282;58494;-78
2023/04/15 01:14:33;;;;;;;5.80;2.80;;;;;;;6.59;100.00;101156.98;107172;1283;58228;-77
2023/04/15 01:16:58;;;;;;;6.30;3.10;;;;;;;6.58;100.00;101158.73;107135;1282;58256;-77
2023/04/15 01:19:24;;;;;;;4.60;2.80;;;;;;;6.61;100.00;101154.27;107185;1282;58166;-77
2023/04/15 01:21:49;;;;;;;5.60;3.50;;;;;;;6.59;100.00;101151.92;107176;1283;58237;-77
2023/04/15 01:24:17;;;;;;;7.70;3.20;;;;;;;6.57;100.00;101152.11;107235;1283;58457;-77
2023/04/15 01:26:44;;;;;;;5.70;3.20;;;;;;;6.54;100.00;101154.34;107153;1282;73208;-78
2023/04/15 01:29:09;;;;;;;5.80;3.80;;;;;;;6.52;100.00;101160.83;107136;1282;58139;-78
2023/04/15 01:31:35;;;;;;;8.10;3.60;;;;;;;6.53;100.00;101163.88;107150;1282;58224;-76
2023/04/15 01:34:01;;;;;;;10.60;3.60;;;;;;;6.55;100.00;101165.87;106563;1283;58382;-78
2023/04/15 01:36:27;;;;;;;6.50;3.60;;;;;;;6.54;100.00;101170.71;106619;1283;58712;-79
2023/04/15 01:38:53;;;;;;;6.70;3.80;;;;;;;6.52;100.00;101170.69;107176;1283;58631;-77
2023/04/15 01:41:25;;;;;;;7.30;4.30;;;;;;;6.54;100.00;101170.59;107202;1282;58537;-78
2023/04/15 01:43:51;;;;;;;8.10;3.70;;;;;;;6.57;100.00;101166.77;107194;1283;73670;-77
2023/04/15 01:46:17;;;;;;;7.10;4.40;;;;;;;6.54;100.00;101166.38;107166;1282;58313;-78
2023/04/15 01:48:42;;;;;;;6.50;4.10;;;;;;;6.55;100.00;101165.77;107137;1282;58927;-76
2023/04/15 01:51:08;;;;;;;9.90;4.60;;;;;;;6.53;100.00;101169.11;107148;1283;58323;-78
2023/04/15 01:53:33;;;;;;;8.00;4.70;;;;;;;6.52;100.00;101171.55;107218;1282;58595;-77
2023/04/15 01:55:59;;;;;;;6.40;4.20;;;;;;;6.50;100.00;101175.40;107145;1282;73526;-77
2023/04/15 01:58:24;;;;;;;7.40;4.10;;;;;;;6.51;100.00;101177.58;107192;1282;58303;-77
2023/04/15 02:00:50;;;;;;;8.90;4.40;;;;;;;6.53;100.00;101174.13;106741;1282;58277;-77
2023/04/15 02:03:16;;;;;;;7.90;4.30;;;;;;;6.53;100.00;101172.77;107172;1282;58293;-78
2023/04/15 02:05:42;;;;;;;6.30;4.00;;;;;;;6.53;100.00;101171.70;106712;1288;58422;-77
2023/04/15 02:08:08;;;;;;;7.20;3.80;;;;;;;6.53;100.00;101176.04;107215;1282;58710;-76
2023/04/15 02:10:34;;;;;;;7.50;4.20;;;;;;;6.52;100.00;101176.86;107137;1282;61831;-76
2023/04/15 02:13:00;;;;;;;9.10;3.80;;;;;;;6.50;100.00;101174.32;107196;1283;58765;-75
2023/04/15 02:15:25;;;;;;;9.30;4.40;;;;;;;6.52;100.00;101178.71;106722;1283;58239;-77
2023/04/15 02:17:51;;;;;;;8.50;4.50;;;;;;;6.55;100.00;101181.34;107204;1282;58575;-76
2023/04/15 02:20:18;;;;;;;6.90;4.00;;;;;;;6.54;100.00;101182.00;107159;1283;58438;-77
2023/04/15 02:22:44;;;;;;;7.00;4.40;;;;;;;6.55;100.00;101184.91;107157;1282;58323;-77
2023/04/15 02:25:10;;;;;;;9.30;4.40;;;;;;;6.53;100.00;101189.64;106976;1283;58263;-78
2023/04/15 02:27:36;;;;;;;7.50;4.10;;;;;;;6.53;100.00;101196.17;107174;1282;58534;-78
2023/04/15 02:30:02;;;;;;;7.00;4.60;;;;;;;6.53;100.00;101192.46;107209;1282;59100;-78
2023/04/15 02:32:27;;;;;;;8.50;4.40;;;;;;;6.54;100.00;101198.48;107115;1283;61379;-78
2023/04/15 02:34:53;;;;;;;10.20;5.40;;;;;;;6.51;100.00;101201.78;106764;1283;58407;-77
2023/04/15 02:37:19;;;;;;;9.40;5.20;;;;;;;6.51;100.00;101198.13;107199;1282;58301;-77
2023/04/15 02:39:45;;;;;;;11.10;5.70;;;;;;;6.53;100.00;101202.84;106619;1283;58378;-78
2023/04/15 02:42:12;;;;;;;10.10;5.50;;;;;;;6.49;100.00;101201.84;106915;1282;348796;-78
2023/04/15 02:44:37;;;;;;;14.20;5.80;;;;;;;6.46;100.00;101203.06;107157;1282;58195;-78
2023/04/15 02:47:05;;;;;;;13.10;6.40;;;;;;;6.44;100.00;101202.54;107187;1282;58391;-77
2023/04/15 02:49:30;;;;;;;11.60;6.00;;;;;;;6.45;100.00;101207.19;107192;1282;58143;-78
2023/04/15 02:51:57;;;;;;;15.30;6.30;;;;;;;6.42;100.00;101207.58;107186;1282;58262;-79
2023/04/15 02:54:22;;;;;;;11.90;6.30;;;;;;;6.40;100.00;101204.23;107176;1282;58570;-78
2023/04/15 02:56:49;;;;;;;14.70;6.70;;;;;;;6.40;100.00;101200.77;107174;1282;60009;-78
2023/04/15 02:59:14;;;;;;;17.80;6.80;;;;;;;6.41;100.00;101201.21;107159;1282;58315;-78
2023/04/15 03:01:40;;;;;;;12.40;6.70;;;;;;;6.34;100.00;101197.75;107202;1283;58846;-78
2023/04/15 03:04:07;;;;;;;14.20;6.80;;;;;;;6.35;100.00;101211.59;107175;1282;58322;-77
2023/04/15 03:06:37;;;;;;;15.90;6.30;;;;;;;6.28;100.00;101215.51;107177;1283;58354;-78
2023/04/15 03:09:02;;;;;;;15.10;6.40;;;;;;;6.32;100.00;101222.08;106760;1283;60173;-78
2023/04/15 03:11:28;;;;;;;12.30;6.40;;;;;;;6.30;100.00;101224.09;107156;1282;58264;-77
2023/04/15 03:13:54;;;;;;;17.80;7.30;;;;;;;6.32;100.00;101221.40;107175;1282;58411;-78
2023/04/15 03:16:20;;;;;;;18.30;7.40;;;;;;;6.31;100.00;101225.36;106625;1283;58523;-78
2023/04/15 03:18:45;;;;;;;17.00;7.60;;;;;;;6.28;100.00;101227.02;107143;1283;58247;-76
2023/04/15 03:21:11;;;;;;;15.20;7.40;;;;;;;6.32;100.00;101228.40;107182;1282;58298;-78
2023/04/15 03:23:36;;;;;;;14.30;7.60;;;;;;;6.30;100.00;101232.41;107153;1282;74076;-77
2023/04/15 03:26:03;;;;;;;14.30;7.40;;;;;;;6.28;100.00;101242.14;107165;1282;58369;-77
2023/04/15 03:28:29;;;;;;;16.90;7.60;;;;;;;6.29;100.00;101246.25;107158;1282;58591;-78
2023/04/15 03:30:55;;;;;;;15.60;7.40;;;;;;;6.29;100.00;101249.27;107201;1282;58310;-78
2023/04/15 03:33:21;;;;;;;14.30;7.40;;;;;;;6.33;100.00;101249.73;107188;1282;58827;-78
2023/04/15 03:35:47;;;;;;;15.20;7.30;;;;;;;6.28;100.00;101249.64;106975;1283;58348;-79
2023/04/15 03:38:12;;;;;;;14.50;7.40;;;;;;;6.30;100.00;101251.73;107144;1282;58242;-78
2023/04/15 03:40:41;;;;;;;14.00;7.40;;;;;;;6.29;100.00;101261.58;106958;1282;58532;-78
2023/04/15 03:43:06;;;;;;;15.70;7.20;;;;;;;6.27;100.00;101267.72;107135;1283;73554;-79
2023/04/15 03:45:32;;;;;;;12.70;6.80;;;;;;;6.28;100.00;101269.85;107194;1282;58349;-78
2023/04/15 03:47:57;;;;;;;12.60;6.60;;;;;;;6.31;100.00;101269.35;107166;1282;58215;-78
2023/04/15 03:50:23;;;;;;;14.10;7.40;;;;;;;6.32;100.00;101269.52;107161;1282;58505;-78
2023/04/15 03:52:49;;;;;;;13.20;7.20;;;;;;;6.30;100.00;101273.39;107176;1282;58284;-78
2023/04/15 03:55:15;;;;;;;11.70;7.10;;;;;;;6.27;100.00;101279.78;106801;1283;58373;-78
2023/04/15 03:57:40;;;;;;;18.10;7.30;;;;;;;6.32;100.00;101278.80;106624;1283;72567;-77
2023/04/15 04:00:08;;;;;;;17.30;7.70;;;;;;;6.33;100.00;101286.83;107148;1282;58318;-78
2023/04/15 04:02:33;;;;;;;14.50;8.00;;;;;;;6.36;100.00;101291.39;107116;1282;60143;-77
2023/04/15 04:04:59;;;;;;;14.30;8.30;;;;;;;6.37;100.00;101294.25;106627;1283;58290;-77
2023/04/15 04:07:25;;;;;;;15.50;7.60;;;;;;;6.34;100.00;101291.81;107186;1282;58298;-78
2023/04/15 04:09:50;;;;;;;14.10;7.50;;;;;;;6.35;100.00;101293.58;106916;1283;58646;-78
2023/04/15 04:12:16;;;;;;;17.50;7.90;;;;;;;6.34;100.00;101300.67;107159;1282;58274;-78
2023/04/15 04:14:41;;;;;;;15.80;7.30;;;;;;;6.33;100.00;101304.75;106990;1283;58222;-77
2023/04/15 04:17:07;;;;;;;14.50;7.20;;;;;;;6.33;100.00;101301.90;106784;1283;58428;-78
2023/04/15 04:19:33;;;;;;;16.10;7.70;;;;;;;6.36;100.00;101298.35;107185;1282;58208;-78
2023/04/15 04:21:58;;;;;;;15.70;7.70;;;;;;;6.38;100.00;101304.14;107190;1282;58217;-78
2023/04/15 04:24:24;;;;;;;15.10;7.90;;;;;;;6.43;100.00;101302.31;107194;1282;58708;-78
2023/04/15 04:26:53;;;;;;;15.70;7.30;;;;;;;6.46;100.00;101306.73;107217;1282;58239;-77
2023/04/15 04:29:18;;;;;;;17.30;7.80;;;;;;;6.46;100.00;101311.80;107164;1282;73281;-78
2023/04/15 04:31:44;;;;;;;17.80;8.50;;;;;;;6.50;100.00;101316.02;107129;1282;58267;-78
2023/04/15 04:34:10;;;;;;;12.60;6.40;;;;;;;6.51;100.00;101321.61;106748;1282;58374;-78
2023/04/15 04:36:35;;;;;;;18.20;7.10;;;;;;;6.50;100.00;101325.33;107172;1282;58240;-78
2023/04/15 04:39:01;;;;;;;12.30;6.80;;;;;;;6.51;100.00;101325.78;107217;1282;58329;-78
2023/04/15 04:41:27;;;;;;;17.10;7.00;;;;;;;6.54;100.00;101330.83;107179;1282;58279;-78
2023/04/15 04:43:52;;;;;;;12.90;6.20;;;;;;;6.62;100.00;101336.02;107166;1282;61177;-78
2023/04/15 04:46:18;;;;;;;10.20;5.20;;;;;;;6.61;100.00;101339.11;107188;1282;58277;-78
2023/04/15 04:48:43;;;;;;;14.80;6.90;;;;;;;6.61;100.00;101341.17;107169;1282;58288;-78
2023/04/15 04:51:09;;;;;;;11.10;5.90;;;;;;;6.61;100.00;101338.98;107162;1282;58563;-77
2023/04/15 04:53:36;;;;;;;11.70;5.40;;;;;;;6.63;100.00;101343.39;106658;1282;58398;-78
2023/04/15 04:56:02;;;;;;;14.50;6.60;;;;;;;6.66;100.00;101346.74;107135;1282;74700;-78
2023/04/15 04:58:27;;;;;;;9.20;5.40;;;;;;;6.69;100.00;101347.47;107194;1282;58106;-77
2023/04/15 05:00:53;;;;;;;10.80;6.10;;;;;;;6.65;100.00;101351.70;107117;1282;58497;-78
2023/04/15 05:03:18;;;;;;;16.80;7.50;;;;;;;6.66;100.00;101352.65;107165;1282;58530;-78
2023/04/15 05:05:44;;;;;;;14.60;6.60;;;;;;;6.68;100.00;101354.36;106789;1283;58310;-78
2023/04/15 05:08:10;;;;;;;12.00;5.20;;;;;;;6.72;100.00;101357.72;107208;1282;73218;-78
2023/04/15 05:10:35;;;;;;;16.20;6.40;;;;;;;6.77;100.00;101357.88;107135;1282;58338;-77
2023/04/15 05:13:01;;;;;;;15.00;6.90;;;;;;;6.77;100.00;101355.77;107168;1282;58192;-78
2023/04/15 05:15:27;;;;;;;15.80;7.40;;;;;;;6.77;100.00;101354.44;107224;1282;58319;-78
2023/04/15 05:17:55;;;;;;;12.60;5.60;;;;;;;6.81;100.00;101358.60;106672;1282;58550;-77
2023/04/15 05:20:20;;;;;;;15.00;6.40;;;;;;;6.84;100.00;101363.41;106687;1286;73484;-78
2023/04/15 05:22:46;;;;;;;13.90;6.10;;;;;;;6.82;100.00;101356.05;106684;1286;58262;-78
2023/04/15 05:25:11;;;;;;;14.70;5.80;;;;;;;6.82;100.00;101358.36;106382;1286;58358;-78
2023/04/15 05:27:37;;;;;;;12.10;5.70;;;;;;;6.82;100.00;101361.36;106673;1286;58437;-79
2023/04/15 05:30:02;;;;;;;10.90;4.80;;;;;;;6.88;100.00;101361.45;106757;1286;58398;-78
2023/04/15 05:32:28;;;;;;;11.70;5.40;;;;;;;6.89;100.00;101364.00;106633;1288;62079;-78
2023/04/15 05:34:53;;;;;;;14.50;6.10;;;;;;;6.90;100.00;101369.35;106588;1286;58690;-78
2023/04/15 05:37:21;;;;;;;10.70;5.60;;;;;;;6.90;100.00;101377.85;106723;1286;58284;-78
2023/04/15 05:39:47;;;;;;;14.30;5.90;;;;;;;6.89;100.00;101376.65;106672;1286;58489;-78
2023/04/15 05:42:13;;;;;;;15.70;6.30;;;;;;;6.92;100.00;101377.17;106384;1286;58590;-78
2023/04/15 05:44:39;;;;;;;11.20;5.70;;;;;;;6.91;100.00;101376.43;106690;1286;58286;-78
2023/04/15 05:47:06;;;;;;;12.90;6.50;;;;;;;6.97;100.00;101374.83;106680;1286;58363;-78
2023/04/15 05:49:31;;;;;;;13.40;5.80;;;;;;;7.00;100.00;101376.36;106702;1286;58261;-78
2023/04/15 05:51:57;;;;;;;11.70;5.20;;;;;;;7.02;100.00;101377.88;106963;1282;58716;-78
2023/04/15 05:54:22;;;;;;;9.10;5.40;;;;;;;7.08;100.00;101377.98;107170;1282;58279;-78
2023/04/15 05:56:48;;;;;;;14.30;5.90;;;;;;;7.18;100.00;101377.81;107188;1282;58228;-78
2023/04/15 05:59:14;;;;;;;11.40;4.70;;;;;;;7.27;100.00;101380.96;107168;1282;58615;-78
2023/04/15 06:01:39;;;;;;;12.30;5.50;;;;;;;7.26;100.00;101378.24;107202;1282;58632;-78
2023/04/15 06:04:04;;;;;;;11.30;5.40;;;;;;;7.22;100.00;101384.56;107158;1282;58241;-78
2023/04/15 06:06:31;;;;;;;10.00;5.00;;;;;;;7.33;100.00;101389.73;106578;1287;58489;-78
2023/04/15 06:08:57;;;;;;;11.60;4.70;;;;;;;7.45;100.00;101394.52;106546;1288;74738;-79
2023/04/15 06:11:23;;;;;;;10.30;5.20;;;;;;;7.50;100.00;101395.87;106530;1287;58821;-78
2023/04/15 06:17:10;;;;;;;9.40;4.90;;;;;;;7.56;100.00;101396.52;106507;1288;61012;-79
2023/04/15 06:19:35;;;;;;;8.70;4.60;;;;;;;7.55;100.00;101400.33;106529;1288;58662;-77
2023/04/15 06:22:02;;;;;;;9.10;4.30;;;;;;;7.52;100.00;101403.25;106539;1287;58245;-78
2023/04/15 06:24:27;;;;;;;12.80;4.90;;;;;;;7.49;100.00;101405.61;106595;1288;58350;-79
2023/04/15 06:26:53;;;;;;;9.10;4.40;;;;;;;7.60;100.00;101407.34;106532;1287;58457;-78
2023/04/15 06:29:19;;;;;;;13.80;4.80;;;;;;;7.55;100.00;101409.21;106607;1288;58257;-78
2023/04/15 06:31:50;;;;;;;8.10;3.80;;;;;;;7.59;100.00;101407.30;106510;1287;73405;-77
2023/04/15 06:34:15;;;;;;;6.70;4.20;;;;;;;7.59;100.00;101411.02;106163;1290;72030;-78
2023/04/15 06:36:41;;;;;;;10.10;4.80;;;;;;;7.53;100.00;101418.29;106231;1286;58290;-78
2023/04/15 06:39:07;;;;;;;7.00;3.60;;;;;;;7.50;100.00;101418.40;106656;1286;58565;-78
2023/04/15 06:41:33;;;;;;;6.70;3.80;;;;;;;7.46;100.00;101421.65;106686;1286;58432;-78
2023/04/15 06:43:58;;;;;;;6.40;3.50;;;;;;;7.48;100.00;101425.27;106091;1286;58352;-78
2023/04/15 06:46:24;;;;;;;5.70;3.80;;;;;;;7.53;100.00;101425.30;106705;1286;58299;-79
2023/04/15 06:48:51;;;;;;;6.90;3.90;;;;;;;7.53;100.00;101419.08;106651;1286;60932;-78
2023/04/15 06:54:38;;;;;;;12.40;4.20;;;;;;;7.59;100.00;101424.68;106700;1286;73544;-78
2023/04/15 06:57:05;;;;;;;7.60;4.10;;;;;;;7.70;100.00;101423.80;106356;1286;58314;-78
2023/04/15 06:59:31;;;;;;;9.50;4.30;;;;;;;7.83;100.00;101426.85;106337;1286;73869;-78
2023/04/15 07:01:57;;;;;;;7.20;4.10;;;;;;;7.87;100.00;101431.52;106707;1286;58338;-78
2023/04/15 07:04:23;;;;;;;8.50;4.60;;;;;;;7.89;100.00;101432.25;106698;1286;58317;-78
2023/04/15 07:06:48;;;;;;;9.00;5.10;;;;;;;7.91;100.00;101445.27;106686;1286;59037;-78
2023/04/15 07:09:14;;;;;;;9.90;4.90;;;;;;;7.88;100.00;101450.46;106684;1286;58423;-79
2023/04/15 07:11:39;;;;;;;13.10;5.70;;;;;;;8.00;100.00;101452.80;106841;1283;58212;-79
2023/04/15 07:14:05;;;;;;;9.20;4.20;;;;;;;8.02;100.00;101452.45;107172;1282;58586;-78
2023/04/15 07:16:31;;;;;;;10.20;4.70;;;;;;;8.07;100.00;101453.30;107170;1283;58540;-78
2023/04/15 07:18:57;;;;;;;5.60;3.10;;;;;;;8.09;100.00;101454.65;107141;1282;58253;-78
2023/04/15 07:21:23;;;;;;;6.20;2.90;;;;;;;8.13;100.00;101447.73;107137;1282;58167;-78
2023/04/15 07:24:09;;;;;;;5.00;3.30;;;;;;;8.13;100.00;101451.16;106629;1282;58567;-78
2023/04/15 07:26:34;;;;;;;5.70;2.80;;;;;;;8.25;100.00;101451.84;107126;1282;59947;-78
2023/04/15 07:29:00;;;;;;;5.60;2.90;;;;;;;8.30;100.00;101454.52;107160;1282;58350;-79
2023/04/15 07:31:26;;;;;;;6.50;3.10;;;;;;;8.31;100.00;101459.42;106698;1283;58359;-78
2023/04/15 07:33:52;;;;;;;4.40;3.00;;;;;;;8.34;100.00;101462.98;107145;1282;58568;-78
2023/04/15 07:36:17;;;;;;;6.50;3.70;;;;;;;8.28;100.00;101468.90;107175;1282;58424;-78
2023/04/15 07:38:43;;;;;;;6.20;3.70;;;;;;;8.26;100.00;101469.38;107222;1282;58372;-78
2023/04/15 07:41:09;;;;;;;8.30;4.00;;;;;;;8.38;100.00;101475.86;107205;1282;73633;-77
2023/04/15 07:43:34;;;;;;;4.80;3.00;;;;;;;8.48;100.00;101480.04;107160;1282;58421;-77
2023/04/15 07:46:00;;;;;;;7.50;3.00;;;;;;;8.46;100.00;101485.85;107172;1282;58216;-76
2023/04/15 07:48:25;;;;;;;8.80;4.40;;;;;;;8.48;100.00;101489.63;107224;1282;58274;-76
2023/04/15 07:50:51;;;;;;;6.10;3.50;;;;;;;8.51;100.00;101488.52;106687;1283;58253;-76
2023/04/15 07:53:17;;;;;;;6.00;3.20;;;;;;;8.57;100.00;101487.20;106983;1283;58533;-76
2023/04/15 07:55:42;;;;;;;4.10;3.00;;;;;;;8.71;100.00;101482.80;106978;1282;58536;-75
2023/04/15 07:58:08;;;;;;;13.10;4.30;;;;;;;8.70;100.00;101489.05;107185;1282;58322;-75
2023/04/15 08:00:33;;;;;;;11.90;4.90;;;;;;;8.73;100.00;101485.29;107207;1282;58261;-76
2023/04/15 08:02:59;;;;;;;7.80;4.00;;;;;;;8.85;100.00;101489.06;107185;1282;58330;-76
2023/04/15 08:05:24;;;;;;;7.80;4.20;;;;;;;8.85;100.00;101488.65;107177;1282;58237;-75
2023/04/15 08:07:50;;;;;;;10.10;3.80;;;;;;;8.96;100.00;101492.23;107191;1282;58911;-77
2023/04/15 08:10:16;;;;;;;6.80;3.60;;;;;;;8.89;100.00;101494.34;107187;1282;58842;-77
2023/04/15 08:12:42;;;;;;;4.80;2.80;;;;;;;8.98;100.00;101496.13;106970;1282;58296;-77
2023/04/15 08:15:08;;;;;;;5.90;3.20;;;;;;;8.96;100.00;101495.46;106619;1282;58526;-78
2023/04/15 08:17:34;;;;;;;8.90;4.20;;;;;;;8.96;100.00;101492.48;107156;1282;58205;-76
2023/04/15 08:19:59;;;;;;;10.40;4.30;;;;;;;8.87;100.00;101495.58;107165;1282;58214;-77
2023/04/15 08:22:25;;;;;;;7.00;3.70;;;;;;;8.78;100.00;101491.06;107155;1283;58686;-77
2023/04/15 08:24:50;;;;;;;8.90;3.90;;;;;;;8.88;100.00;101492.54;107214;1282;58499;-76
2023/04/15 08:27:16;;;;;;;9.30;3.90;;;;;;;8.88;100.00;101491.19;107183;1282;58280;-77
2023/04/15 08:29:42;;;;;;;5.50;3.20;;;;;;;8.85;100.00;101492.78;107196;1282;58167;-77
2023/04/15 08:32:08;;;;;;;6.70;3.60;;;;;;;8.83;100.00;101489.64;107199;1282;58472;-76
2023/04/15 08:34:34;;;;;;;7.50;4.10;;;;;;;8.87;100.00;101484.86;107173;1282;58477;-77
2023/04/15 08:36:59;;;;;;;8.20;5.00;;;;;;;8.83;100.00;101485.25;107167;1282;58232;-77
2023/04/15 08:39:26;;;;;;;7.80;3.60;;;;;;;8.92;100.00;101488.15;107160;1282;59962;-77
2023/04/15 08:41:56;;;;;;;7.90;3.80;;;;;;;9.01;100.00;101487.13;107180;1282;58309;-77
2023/04/15 08:44:22;;;;;;;7.60;3.40;;;;;;;9.03;100.00;101485.06;107133;1282;74351;-77
2023/04/15 08:46:48;;;;;;;8.30;4.00;;;;;;;9.02;100.00;101483.47;107172;1282;58276;-77
2023/04/15 08:49:16;;;;;;;7.90;4.00;;;;;;;9.06;100.00;101483.95;106772;1283;58228;-77
2023/04/15 08:51:42;;;;;;;4.60;3.00;;;;;;;9.04;100.00;101484.27;107178;1282;60390;-76
2023/04/15 08:54:08;;;;;;;8.50;3.80;;;;;;;9.04;100.00;101485.71;106782;1282;58392;-78
2023/04/15 08:56:35;;;;;;;5.40;3.60;;;;;;;9.08;100.00;101481.95;107145;1282;58567;-77
2023/04/15 08:59:01;;;;;;;8.30;3.90;;;;;;;9.15;100.00;101480.14;107172;1282;58844;-77
2023/04/15 09:01:27;;;;;;;9.40;3.10;;;;;;;9.13;100.00;101484.73;107200;1282;58203;-78
2023/04/15 09:03:56;;;;;;;6.30;3.20;;;;;;;9.18;100.00;101492.77;107200;1282;58353;-77
2023/04/15 09:06:22;;;;;;;8.60;4.80;;;;;;;9.33;100.00;101486.80;107177;1282;73597;-77
2023/04/15 09:08:49;;;;;;;6.80;4.00;;;;;;;9.48;100.00;101488.31;107173;1282;73354;-77
2023/04/15 09:11:16;;;;;;;6.80;4.00;;;;;;;9.51;100.00;101496.22;107182;1282;73519;-77
2023/04/15 09:13:42;;;;;;;6.20;3.60;;;;;;;9.50;100.00;101502.11;107168;1282;60209;-77
2023/04/15 09:16:08;;;;;;;7.00;3.20;;;;;;;9.42;100.00;101499.13;107148;1282;58223;-77
2023/04/15 09:18:35;;;;;;;8.10;3.80;;;;;;;9.42;100.00;101505.44;106643;1283;58789;-76
2023/04/15 09:21:05;;;;;;;5.80;3.10;;;;;;;9.39;100.00;101502.58;107192;1282;58219;-78
2023/04/15 09:23:32;;;;;;;7.30;3.90;;;;;;;9.43;100.00;101508.42;106902;1283;73405;-77
2023/04/15 09:25:58;;;;;;;5.50;3.40;;;;;;;9.55;100.00;101512.02;107138;1282;62016;-78
2023/04/15 09:28:27;;;;;;;6.10;3.80;;;;;;;9.61;100.00;101515.08;107146;1282;58442;-77
2023/04/15 09:31:00;;;;;;;9.80;4.90;;;;;;;9.51;100.00;101508.96;106818;1282;72963;-78
2023/04/15 09:33:27;;;;;;;10.10;4.50;;;;;;;9.68;100.00;101514.20;107135;1282;73414;-77
2023/04/15 09:36:04;;;;;;;7.70;3.80;;;;;;;9.71;100.00;101519.89;107164;1282;73145;-77
2023/04/15 09:38:30;;;;;;;9.00;4.50;;;;;;;9.68;100.00;101520.56;106615;1282;61766;-77
2023/04/15 09:40:57;;;;;;;6.70;3.90;;;;;;;9.78;100.00;101513.98;107165;1282;60936;-77
2023/04/15 09:43:36;;;;;;;10.70;4.40;;;;;;;9.81;100.00;101513.59;107205;1282;58626;-77
2023/04/15 09:46:01;;;;;;;6.30;4.00;;;;;;;9.91;100.00;101516.00;106697;1286;74273;-77
2023/04/15 09:48:27;;;;;;;6.70;3.70;;;;;;;9.95;100.00;101517.85;106724;1286;58366;-78
2023/04/15 09:50:57;;;;;;;7.80;4.60;;;;;;;9.85;100.00;101515.02;106661;1286;58259;-78
2023/04/15 09:53:24;;;;;;;8.80;4.10;;;;;;;9.77;100.00;101518.55;106656;1286;61096;-77
2023/04/15 09:55:52;;;;;;;8.50;4.10;;;;;;;9.72;100.00;101520.04;106720;1286;73678;-78
2023/04/15 09:58:19;;;;;;;7.20;4.00;;;;;;;9.78;100.00;101524.33;106714;1286;74386;-80
2023/04/15 10:00:47;;;;;;;8.50;4.40;;;;;;;9.86;100.00;101524.37;106736;1286;73502;-78
2023/04/15 10:03:17;;;;;;;9.60;4.80;;;;;;;9.75;100.00;101523.77;106690;1286;61926;-78
2023/04/15 10:05:43;;;;;;;6.20;3.70;;;;;;;9.81;100.00;101534.27;106683;1286;59965;-78
2023/04/15 10:08:09;;;;;;;6.20;4.00;;;;;;;9.73;100.00;101538.36;106728;1286;58577;-78
2023/04/15 10:10:35;;;;;;;6.60;4.10;;;;;;;9.64;100.00;101539.33;106692;1286;58443;-78
2023/04/15 10:13:01;;;;;;;10.20;5.00;;;;;;;9.61;100.00;101545.54;106451;1286;58656;-78
2023/04/15 10:15:28;;;;;;;7.80;4.70;;;;;;;9.61;100.00;101559.38;106718;1286;58537;-79
2023/04/15 10:17:57;;;;;;;8.40;4.20;;;;;;;9.60;100.00;101560.63;106726;1286;58368;-78
2023/04/15 10:20:23;;;;;;;6.90;4.30;;;;;;;9.56;100.00;101556.25;106674;1286;74405;-78
2023/04/15 10:22:50;;;;;;;5.80;3.70;;;;;;;9.68;100.00;101555.79;106488;1290;58301;-78
2023/04/15 10:25:15;;;;;;;8.10;4.20;;;;;;;9.56;100.00;101557.37;107156;1282;58260;-78
2023/04/15 10:27:41;;;;;;;10.50;5.20;;;;;;;9.63;100.00;101561.20;107163;1282;58649;-78
2023/04/15 10:30:08;;;;;;;12.60;6.10;;;;;;;9.64;100.00;101564.39;107201;1282;58211;-78
2023/04/15 10:32:34;;;;;;;10.80;5.30;;;;;;;9.74;100.00;101562.78;107148;1282;58280;-77
2023/04/15 10:35:00;;;;;;;13.10;5.60;;;;;;;9.71;100.00;101565.65;107188;1282;58672;-78
2023/04/15 10:37:35;;;;;;;8.90;4.90;;;;;;;9.77;100.00;101572.39;107141;1282;58218;-78
2023/04/15 10:40:27;;;;;;;8.90;4.70;;;;;;;9.71;100.00;101583.11;107139;1282;60867;-77
2023/04/15 10:42:58;;;;;;;9.20;4.80;;;;;;;9.62;100.00;101587.55;106965;1283;60005;-78
2023/04/15 10:45:31;;;;;;;7.50;4.40;;;;;;;9.60;100.00;101580.88;107183;1282;72465;-78
2023/04/15 10:48:00;;;;;;;10.10;5.10;;;;;;;9.67;100.00;101584.83;107120;1282;74058;-78
2023/04/15 10:50:27;;;;;;;12.70;5.20;;;;;;;9.66;100.00;101584.48;107138;1282;71339;-78
2023/04/15 10:52:52;;;;;;;12.30;5.70;;;;;;;9.62;100.00;101587.98;106749;1283;60886;-78
2023/04/15 10:55:23;;;;;;;14.80;6.30;;;;;;;9.67;100.00;101588.49;107187;1282;58206;-79
2023/04/15 10:58:00;;;;;;;12.10;5.60;;;;;;;9.67;100.00;101590.71;107204;1282;74536;-78
2023/04/15 11:00:28;;;;;;;11.20;6.20;;;;;;;9.64;100.00;101588.90;106716;1283;73282;-78
2023/04/15 11:02:56;;;;;;;13.50;6.30;;;;;;;9.61;100.00;101588.81;107163;1282;71986;-78
2023/04/15 11:05:40;;;;;;;12.90;6.50;;;;;;;9.59;100.00;101595.17;107113;1282;61040;-78
2023/04/15 11:08:06;;;;;;;13.60;6.30;;;;;;;9.61;100.00;101593.74;107181;1282;60839;-78
2023/04/15 11:10:32;;;;;;;11.80;5.80;;;;;;;9.61;100.00;101596.23;106905;1283;72788;-77
2023/04/15 11:13:03;;;;;;;15.10;6.70;;;;;;;9.62;100.00;101592.19;107218;1282;58212;-78
2023/04/15 11:15:43;;;;;;;11.00;5.70;;;;;;;9.70;100.00;101593.62;107143;1282;72569;-78
2023/04/15 11:18:15;;;;;;;11.90;6.20;;;;;;;9.68;100.00;101588.80;107168;1282;61281;-78